Time;durP1;ratioP1;P1;durP2;ratioP2;P2;SDS_P1;SDS_P2;PMS_P1;PMS_P2;Temp;Humidity;BMP_temperature;BMP_pressure;BME280_temperature;BME280_humidity;BME280_pressure;Samples;Min_cycle;Max_cycle;Signal;HPM_P1;HPM_P2
2021/04/09 00:01:24;;;;;;;;;35.00;32.67;;;;;;;;4998900;28;8824;-79
2021/04/09 00:03:51;;;;;;;;;32.00;31.00;;;;;;;;5002720;28;9613;-79
2021/04/09 00:06:18;;;;;;;;;32.67;29.33;;;;;;;;5001451;28;8871;-79
2021/04/09 00:08:45;;;;;;;;;30.33;30.33;;;;;;;;5000417;28;8867;-78
2021/04/09 00:11:12;;;;;;;;;30.00;28.00;;;;;;;;5000487;28;8882;-79
2021/04/09 00:13:39;;;;;;;;;36.67;34.33;;;;;;;;5001281;28;8891;-78
2021/04/09 00:16:06;;;;;;;;;31.00;27.00;;;;;;;;4990317;28;8864;-79
2021/04/09 00:18:35;;;;;;;;;35.33;30.67;;;;;;;;5000827;28;9671;-78
2021/04/09 00:21:02;;;;;;;;;34.00;31.67;;;;;;;;4999612;28;8943;-79
2021/04/09 00:23:29;;;;;;;;;35.33;30.00;;;;;;;;5000382;28;8867;-76
2021/04/09 00:25:56;;;;;;;;;36.67;34.67;;;;;;;;4998419;28;8870;-79
2021/04/09 00:28:23;;;;;;;;;33.33;28.67;;;;;;;;4999746;28;8880;-79
2021/04/09 00:30:50;;;;;;;;;31.00;22.33;;;;;;;;5000464;28;8811;-78
2021/04/09 00:33:17;;;;;;;;;28.67;26.00;;;;;;;;5000059;28;8930;-79
2021/04/09 00:35:45;;;;;;;;;27.67;25.33;;;;;;;;5001166;28;8885;-81
2021/04/09 00:38:13;;;;;;;;;30.33;28.33;;;;;;;;4995462;28;8870;-79
2021/04/09 00:40:40;;;;;;;;;26.67;26.67;;;;;;;;5000537;28;8861;-80
2021/04/09 00:43:07;;;;;;;;;27.00;24.33;;;;;;;;5000091;28;8873;-81
2021/04/09 00:45:35;;;;;;;;;25.33;23.33;;;;;;;;5001144;28;8891;-81
2021/04/09 00:48:01;;;;;;;;;21.00;20.00;;;;;;;;4983936;28;8860;-81
2021/04/09 00:50:28;;;;;;;;;33.00;28.00;;;;;;;;4999943;28;9711;-81
2021/04/09 00:52:56;;;;;;;;;27.67;26.33;;;;;;;;4994947;28;8870;-80
2021/04/09 00:55:23;;;;;;;;;29.00;27.67;;;;;;;;5000244;28;8889;-82
2021/04/09 00:57:52;;;;;;;;;20.00;17.33;;;;;;;;5001801;28;8874;-80
2021/04/09 01:00:20;;;;;;;;;27.67;23.67;;;;;;;;5001304;28;8871;-80
2021/04/09 01:02:48;;;;;;;;;27.00;25.00;;;;;;;;5000683;28;8867;-80
2021/04/09 01:05:16;;;;;;;;;27.00;27.00;;;;;;;;5003327;28;8845;-81
2021/04/09 01:07:44;;;;;;;;;20.67;20.33;;;;;;;;4998671;28;8884;-81
2021/04/09 01:10:14;;;;;;;;;30.67;26.67;;;;;;;;5001584;28;8860;-81
2021/04/09 01:12:41;;;;;;;;;23.67;23.00;;;;;;;;5002050;28;8934;-80
2021/04/09 01:15:10;;;;;;;;;27.00;24.00;;;;;;;;5000231;28;9529;-80
2021/04/09 01:17:41;;;;;;;;;27.00;23.00;;;;;;;;4983507;28;8915;-79
2021/04/09 01:20:26;;;;;;;;;23.00;23.00;;;;;;;;5002044;28;8879;-80
2021/04/09 01:23:02;;;;;;;;;29.33;28.33;;;;;;;;5001098;28;8899;-80
2021/04/09 01:25:59;;;;;;;;;24.00;20.00;;;;;;;;4999430;28;8918;-80
2021/04/09 01:28:28;;;;;;;;;26.00;23.00;;;;;;;;5001127;28;11570;-79
2021/04/09 01:31:04;;;;;;;;;29.67;27.67;;;;;;;;4999541;28;8835;-78
2021/04/09 01:33:34;;;;;;;;;25.67;20.00;;;;;;;;4998555;28;8898;-80
2021/04/09 01:36:07;;;;;;;;;33.33;27.00;;;;;;;;5001410;28;8892;-81
2021/04/09 01:38:40;;;;;;;;;23.67;20.33;;;;;;;;4981130;28;8868;-81
2021/04/09 01:41:08;;;;;;;;;35.33;28.33;;;;;;;;4984960;28;8886;-81
2021/04/09 01:43:36;;;;;;;;;34.67;27.00;;;;;;;;5003131;28;8860;-81
2021/04/09 01:46:04;;;;;;;;;22.67;20.33;;;;;;;;5004212;28;9658;-81
2021/04/09 01:48:33;;;;;;;;;23.00;19.33;;;;;;;;5004603;28;8884;-81
2021/04/09 01:51:00;;;;;;;;;20.67;19.67;;;;;;;;4997291;28;9446;-81
2021/04/09 01:53:29;;;;;;;;;23.67;20.67;;;;;;;;5010101;28;8918;-81
2021/04/09 01:55:58;;;;;;;;;33.33;31.00;;;;;;;;5002886;28;11510;-81
2021/04/09 01:58:27;;;;;;;;;22.33;21.00;;;;;;;;5003770;28;8882;-81
2021/04/09 02:00:55;;;;;;;;;21.67;21.67;;;;;;;;5005020;28;8809;-81
2021/04/09 02:03:22;;;;;;;;;34.33;27.00;;;;;;;;5004940;28;8890;-81
2021/04/09 02:05:52;;;;;;;;;26.67;19.33;;;;;;;;5004359;28;8864;-81
2021/04/09 02:08:20;;;;;;;;;27.00;26.67;;;;;;;;5003684;28;11543;-81
2021/04/09 02:10:48;;;;;;;;;21.00;21.00;;;;;;;;5004194;28;11561;-79
2021/04/09 02:13:16;;;;;;;;;24.00;24.00;;;;;;;;5002112;28;8916;-82
2021/04/09 02:15:44;;;;;;;;;20.33;18.00;;;;;;;;5004376;28;8876;-80
2021/04/09 02:18:11;;;;;;;;;24.00;24.00;;;;;;;;5003126;28;8876;-79
2021/04/09 02:20:38;;;;;;;;;29.00;26.67;;;;;;;;5003183;28;11565;-80
2021/04/09 02:23:06;;;;;;;;;21.00;18.00;;;;;;;;4986043;28;8847;-79
2021/04/09 02:25:33;;;;;;;;;24.67;23.00;;;;;;;;5003029;28;11587;-79
2021/04/09 02:28:00;;;;;;;;;25.00;17.67;;;;;;;;5005703;28;8851;-78
2021/04/09 02:30:27;;;;;;;;;22.67;19.33;;;;;;;;5000782;28;8788;-78
2021/04/09 02:32:54;;;;;;;;;31.67;29.33;;;;;;;;5002805;28;12390;-78
2021/04/09 02:35:21;;;;;;;;;27.00;23.00;;;;;;;;5002613;28;8863;-79
2021/04/09 02:37:50;;;;;;;;;20.33;15.67;;;;;;;;5003849;28;11583;-79
2021/04/09 02:40:19;;;;;;;;;24.67;24.00;;;;;;;;5002940;28;8875;-80
2021/04/09 02:42:48;;;;;;;;;24.33;21.00;;;;;;;;5002018;28;8906;-79
2021/04/09 02:45:17;;;;;;;;;24.00;20.00;;;;;;;;5004257;28;8976;-80
2021/04/09 02:47:45;;;;;;;;;19.67;17.67;;;;;;;;5002322;28;8957;-80
2021/04/09 02:50:15;;;;;;;;;18.67;18.67;;;;;;;;5003798;28;8959;-79
2021/04/09 02:52:46;;;;;;;;;18.00;15.00;;;;;;;;5001395;28;8864;-80
2021/04/09 02:55:16;;;;;;;;;20.33;17.33;;;;;;;;5004266;28;8901;-79
2021/04/09 02:57:47;;;;;;;;;18.67;18.67;;;;;;;;5001341;28;11547;-80
2021/04/09 03:00:15;;;;;;;;;21.67;19.67;;;;;;;;5000153;28;8882;-79
2021/04/09 03:02:42;;;;;;;;;21.67;21.67;;;;;;;;5003653;28;8936;-79
2021/04/09 03:05:10;;;;;;;;;17.00;17.00;;;;;;;;4982726;28;11763;-80
2021/04/09 03:07:39;;;;;;;;;16.33;16.33;;;;;;;;5002341;28;11556;-80
2021/04/09 03:10:07;;;;;;;;;18.33;17.00;;;;;;;;5006486;28;8881;-81
2021/04/09 03:12:34;;;;;;;;;23.00;20.33;;;;;;;;5001739;28;11651;-81
2021/04/09 03:15:03;;;;;;;;;23.00;17.33;;;;;;;;5002650;28;8910;-79
2021/04/09 03:17:34;;;;;;;;;20.67;20.00;;;;;;;;5002503;28;8904;-80
2021/04/09 03:20:01;;;;;;;;;17.00;17.00;;;;;;;;5003509;28;9746;-80
2021/04/09 03:22:27;;;;;;;;;16.00;16.00;;;;;;;;5000457;28;8907;-80
2021/04/09 03:24:54;;;;;;;;;15.67;14.67;;;;;;;;5002862;28;8908;-81
2021/04/09 03:27:21;;;;;;;;;18.33;16.67;;;;;;;;5002193;28;8874;-81
2021/04/09 03:29:47;;;;;;;;;18.33;14.67;;;;;;;;5002321;28;11698;-82
2021/04/09 03:32:16;;;;;;;;;19.67;16.00;;;;;;;;5001602;28;8795;-80
2021/04/09 03:34:44;;;;;;;;;21.33;19.33;;;;;;;;5001852;28;8871;-81
2021/04/09 03:37:10;;;;;;;;;21.33;20.00;;;;;;;;5006338;28;8981;-81
2021/04/09 03:39:38;;;;;;;;;25.67;20.33;;;;;;;;5000844;28;8868;-80
2021/04/09 03:42:06;;;;;;;;;23.00;23.00;;;;;;;;5002781;28;8948;-81
2021/04/09 03:44:33;;;;;;;;;17.67;17.67;;;;;;;;4979564;28;8894;-81
2021/04/09 03:47:00;;;;;;;;;26.00;21.33;;;;;;;;4982653;28;8869;-81
2021/04/09 03:49:28;;;;;;;;;17.33;17.33;;;;;;;;4980313;28;8861;-81
2021/04/09 03:51:55;;;;;;;;;18.67;18.67;;;;;;;;4983326;28;8886;-81
2021/04/09 03:54:22;;;;;;;;;17.33;16.00;;;;;;;;4980469;28;8876;-79
2021/04/09 03:56:49;;;;;;;;;16.00;16.00;;;;;;;;4979783;28;8903;-80
2021/04/09 03:59:16;;;;;;;;;16.33;15.33;;;;;;;;4981479;28;8885;-81
2021/04/09 04:01:44;;;;;;;;;14.00;10.00;;;;;;;;4980556;28;8832;-79
2021/04/09 04:04:11;;;;;;;;;11.67;11.00;;;;;;;;4983952;28;11599;-78
2021/04/09 04:06:39;;;;;;;;;11.00;11.00;;;;;;;;4980909;28;11744;-79
2021/04/09 04:09:06;;;;;;;;;15.33;13.67;;;;;;;;4981921;28;8897;-80
2021/04/09 04:11:33;;;;;;;;;14.00;11.00;;;;;;;;4982345;28;11655;-79
2021/04/09 04:14:00;;;;;;;;;13.33;13.33;;;;;;;;4986824;28;11603;-79
2021/04/09 04:16:27;;;;;;;;;18.67;13.67;;;;;;;;4982947;28;11649;-79
2021/04/09 04:18:54;;;;;;;;;11.33;11.33;;;;;;;;5014911;28;11586;-82
2021/04/09 04:21:21;;;;;;;;;13.33;13.33;;;;;;;;4980644;28;11599;-80
2021/04/09 04:23:50;;;;;;;;;23.00;11.67;;;;;;;;4981211;28;11734;-83
2021/04/09 04:26:17;;;;;;;;;12.33;11.67;;;;;;;;4981834;28;11621;-83
2021/04/09 04:28:44;;;;;;;;;11.00;11.00;;;;;;;;4980825;28;11745;-81
2021/04/09 04:31:11;;;;;;;;;15.00;10.33;;;;;;;;4980389;28;8821;-80
2021/04/09 04:33:38;;;;;;;;;16.67;12.33;;;;;;;;4980921;28;11665;-80
2021/04/09 04:36:06;;;;;;;;;13.67;10.67;;;;;;;;4981037;28;11637;-79
2021/04/09 04:38:33;;;;;;;;;14.00;14.00;;;;;;;;4982892;28;11627;-79
2021/04/09 04:41:01;;;;;;;;;11.33;10.00;;;;;;;;4980835;28;8984;-80
2021/04/09 04:43:29;;;;;;;;;13.33;13.33;;;;;;;;4986763;28;11629;-80
2021/04/09 04:45:56;;;;;;;;;19.00;13.67;;;;;;;;4983693;28;10014;-80
2021/04/09 04:48:22;;;;;;;;;13.33;13.33;;;;;;;;5001740;28;8919;-81
2021/04/09 04:50:49;;;;;;;;;10.67;10.67;;;;;;;;5001759;28;8998;-79
2021/04/09 04:53:16;;;;;;;;;11.00;11.00;;;;;;;;4982898;28;9658;-78
2021/04/09 04:55:43;;;;;;;;;13.00;13.00;;;;;;;;5001855;28;8926;-79
2021/04/09 04:58:11;;;;;;;;;17.33;13.67;;;;;;;;5000939;28;8872;-81
2021/04/09 05:00:38;;;;;;;;;10.00;8.33;;;;;;;;5001173;28;8882;-79
2021/04/09 05:03:05;;;;;;;;;14.67;13.00;;;;;;;;5003783;28;9643;-83
2021/04/09 05:05:32;;;;;;;;;13.00;13.00;;;;;;;;4983660;28;8950;-81
2021/04/09 05:07:59;;;;;;;;;11.00;11.00;;;;;;;;5001967;28;8860;-81
2021/04/09 05:10:26;;;;;;;;;11.00;11.00;;;;;;;;5001175;28;9699;-82
2021/04/09 05:12:53;;;;;;;;;13.00;13.00;;;;;;;;5000325;28;8867;-81
2021/04/09 05:15:21;;;;;;;;;10.00;10.00;;;;;;;;5001225;28;8860;-83
2021/04/09 05:17:47;;;;;;;;;13.00;13.00;;;;;;;;5006191;28;8852;-82
2021/04/09 05:20:15;;;;;;;;;17.67;15.67;;;;;;;;5004232;28;8900;-83
2021/04/09 05:22:42;;;;;;;;;16.33;13.33;;;;;;;;5005733;28;8887;-83
2021/04/09 05:25:09;;;;;;;;;16.67;13.00;;;;;;;;5005063;28;8875;-80
2021/04/09 05:27:36;;;;;;;;;13.33;13.33;;;;;;;;5004936;28;9028;-82
2021/04/09 05:30:04;;;;;;;;;13.00;13.00;;;;;;;;5004175;28;8855;-76
2021/04/09 05:32:32;;;;;;;;;13.00;10.00;;;;;;;;5002172;28;8874;-78
2021/04/09 05:34:58;;;;;;;;;19.00;13.67;;;;;;;;5003062;28;8867;-79
2021/04/09 05:37:25;;;;;;;;;12.33;10.00;;;;;;;;5001345;28;8892;-79
2021/04/09 05:39:52;;;;;;;;;11.00;10.00;;;;;;;;5002894;28;9001;-76
2021/04/09 05:42:19;;;;;;;;;13.00;13.00;;;;;;;;5002737;28;8879;-77
2021/04/09 05:44:46;;;;;;;;;12.67;12.67;;;;;;;;5003035;28;8903;-77
2021/04/09 05:47:13;;;;;;;;;19.33;17.00;;;;;;;;5002745;28;8859;-79
2021/04/09 05:49:41;;;;;;;;;23.67;13.67;;;;;;;;4984577;28;8879;-79
2021/04/09 05:52:10;;;;;;;;;20.00;17.00;;;;;;;;5006346;28;8965;-79
2021/04/09 05:54:40;;;;;;;;;21.33;14.00;;;;;;;;5002403;28;8993;-80
2021/04/09 05:57:07;;;;;;;;;11.00;11.00;;;;;;;;5003157;28;11579;-79
2021/04/09 05:59:34;;;;;;;;;12.33;12.33;;;;;;;;5001084;28;8874;-77
2021/04/09 06:02:01;;;;;;;;;11.00;10.67;;;;;;;;5003043;28;8848;-78
2021/04/09 06:04:28;;;;;;;;;16.00;16.00;;;;;;;;5003448;28;8873;-81
2021/04/09 06:06:56;;;;;;;;;19.00;16.33;;;;;;;;5003913;28;8891;-76
2021/04/09 06:09:23;;;;;;;;;19.00;17.00;;;;;;;;5003688;28;8842;-79
2021/04/09 06:11:50;;;;;;;;;11.00;10.67;;;;;;;;5002467;28;8956;-77
2021/04/09 06:14:17;;;;;;;;;17.33;17.33;;;;;;;;5003238;28;11564;-79
2021/04/09 06:16:44;;;;;;;;;15.33;14.00;;;;;;;;5001122;28;8855;-78
2021/04/09 06:19:11;;;;;;;;;15.00;15.00;;;;;;;;4999971;28;11614;-79
2021/04/09 06:21:38;;;;;;;;;17.33;16.33;;;;;;;;4984493;28;11646;-80
2021/04/09 06:24:07;;;;;;;;;16.33;16.00;;;;;;;;5000222;28;12968;-79
2021/04/09 06:26:35;;;;;;;;;17.33;12.33;;;;;;;;5000774;28;11646;-87
2021/04/09 06:29:01;;;;;;;;;14.00;14.00;;;;;;;;5000005;28;11652;-83
2021/04/09 06:31:28;;;;;;;;;17.67;13.67;;;;;;;;5002297;28;11507;-71
2021/04/09 06:33:55;;;;;;;;;24.67;19.67;;;;;;;;5000795;28;12947;-70
2021/04/09 06:36:22;;;;;;;;;21.33;17.00;;;;;;;;5001329;28;11560;-70
2021/04/09 06:38:49;;;;;;;;;19.33;19.33;;;;;;;;4998788;28;11644;-69
2021/04/09 06:41:18;;;;;;;;;23.33;18.33;;;;;;;;5000074;28;11702;-70
2021/04/09 06:43:45;;;;;;;;;23.25;20.50;;;;;;;;5003912;28;12339;-69
2021/04/09 06:46:12;;;;;;;;;14.50;14.50;;;;;;;;5001586;28;12894;-70
2021/04/09 06:48:39;;;;;;;;;22.00;19.25;;;;;;;;5001467;28;11547;-70
2021/04/09 06:51:06;;;;;;;;;18.75;18.00;;;;;;;;5000360;28;11619;-70
2021/04/09 06:53:33;;;;;;;;;21.25;17.00;;;;;;;;5001539;28;11591;-72
2021/04/09 06:56:01;;;;;;;;;21.00;20.75;;;;;;;;5000540;28;11726;-70
2021/04/09 06:58:29;;;;;;;;;20.25;18.75;;;;;;;;5001218;28;11571;-70
2021/04/09 07:01:00;;;;;;;;;23.25;18.75;;;;;;;;5004278;28;11644;-72
2021/04/09 07:03:26;;;;;;;;;17.75;17.75;;;;;;;;4996755;28;11584;-72
2021/04/09 07:05:53;;;;;;;;;21.50;18.00;;;;;;;;4994984;28;11575;-72
2021/04/09 07:08:20;;;;;;;;;20.25;16.75;;;;;;;;5002228;28;11685;-71
2021/04/09 07:10:47;;;;;;;;;18.75;18.75;;;;;;;;5000602;28;12202;-73
2021/04/09 07:13:14;;;;;;;;;22.75;20.00;;;;;;;;4998420;28;12332;-72
2021/04/09 07:15:43;;;;;;;;;12.25;11.00;;;;;;;;4999309;28;11567;-71
2021/04/09 07:18:11;;;;;;;;;19.00;19.00;;;;;;;;4996127;28;11643;-71
2021/04/09 07:20:39;;;;;;;;;14.00;14.00;;;;;;;;5004172;28;12350;-71
2021/04/09 07:23:07;;;;;;;;;14.50;14.50;;;;;;;;5001805;28;11561;-73
2021/04/09 07:25:36;;;;;;;;;16.50;16.50;;;;;;;;5002188;28;11518;-72
2021/04/09 07:28:12;;;;;;;;;23.00;20.50;;;;;;;;5001680;28;11714;-72
2021/04/09 07:30:40;;;;;;;;;19.25;17.50;;;;;;;;5001249;28;12135;-73
2021/04/09 07:33:09;;;;;;;;;20.50;16.00;;;;;;;;5002524;28;11522;-72
2021/04/09 07:35:51;;;;;;;;;20.00;15.25;;;;;;;;5000025;28;11623;-72
2021/04/09 07:38:24;;;;;;;;;17.75;17.75;;;;;;;;5000458;28;11700;-71
2021/04/09 07:40:53;;;;;;;;;22.00;18.00;;;;;;;;5001293;28;11536;-71
2021/04/09 07:43:20;;;;;;;;;21.50;18.75;;;;;;;;4998943;28;11553;-72
2021/04/09 07:45:48;;;;;;;;;20.00;17.50;;;;;;;;5001160;28;11523;-72
2021/04/09 07:48:18;;;;;;;;;18.00;14.75;;;;;;;;4999823;28;11568;-72
2021/04/09 07:50:48;;;;;;;;;16.50;16.50;;;;;;;;4999214;28;12246;-72
2021/04/09 07:53:19;;;;;;;;;16.00;14.50;;;;;;;;5000943;28;11486;-72
2021/04/09 07:55:46;;;;;;;;;15.00;15.00;;;;;;;;5001070;28;11501;-71
2021/04/09 07:58:18;;;;;;;;;19.75;19.75;;;;;;;;5000879;28;11654;-72
2021/04/09 08:00:47;;;;;;;;;18.25;15.75;;;;;;;;4998482;28;11514;-71
2021/04/09 08:03:30;;;;;;;;;19.50;18.00;;;;;;;;5000995;28;11544;-72
2021/04/09 08:06:08;;;;;;;;;19.00;16.00;;;;;;;;4999211;28;11525;-72
2021/04/09 08:08:35;;;;;;;;;21.25;18.25;;;;;;;;5001363;28;11576;-72
2021/04/09 08:11:19;;;;;;;;;18.25;15.50;;;;;;;;5001325;28;11626;-71
2021/04/09 08:13:49;;;;;;;;;19.50;19.00;;;;;;;;4997643;28;11583;-71
2021/04/09 08:16:33;;;;;;;;;16.25;15.50;;;;;;;;5000393;28;11599;-71
2021/04/09 08:19:03;;;;;;;;;16.25;16.25;;;;;;;;4997263;28;11577;-70
2021/04/09 08:21:32;;;;;;;;;20.00;16.25;;;;;;;;4998522;28;11442;-72
2021/04/09 08:24:00;;;;;;;;;19.00;17.00;;;;;;;;4999457;28;12398;-73
2021/04/09 08:26:28;;;;;;;;;20.50;15.00;;;;;;;;5000977;28;12358;-73
2021/04/09 08:28:56;;;;;;;;;19.00;16.25;;;;;;;;5001695;28;11577;-71
2021/04/09 08:31:24;;;;;;;;;20.50;19.00;;;;;;;;4997862;28;11474;-72
2021/04/09 08:33:51;;;;;;;;;15.50;15.50;;;;;;;;5001311;28;11513;-72
2021/04/09 08:36:19;;;;;;;;;17.75;16.25;;;;;;;;5000781;28;11481;-72
2021/04/09 08:38:46;;;;;;;;;21.50;19.25;;;;;;;;4997994;28;11879;-72
2021/04/09 08:41:14;;;;;;;;;19.50;15.50;;;;;;;;5001630;28;11524;-72
2021/04/09 08:43:42;;;;;;;;;17.00;17.00;;;;;;;;4999886;28;12402;-72
2021/04/09 08:46:09;;;;;;;;;24.50;18.25;;;;;;;;5001124;28;11570;-72
2021/04/09 08:48:38;;;;;;;;;18.50;17.25;;;;;;;;4998469;28;12516;-72
2021/04/09 08:51:06;;;;;;;;;15.75;15.75;;;;;;;;5004940;28;11503;-73
2021/04/09 08:53:34;;;;;;;;;19.50;17.75;;;;;;;;5003646;28;11481;-71
2021/04/09 08:56:02;;;;;;;;;19.00;18.00;;;;;;;;4999133;28;11361;-72
2021/04/09 08:58:30;;;;;;;;;14.25;14.25;;;;;;;;5004482;28;11043;-72
2021/04/09 09:01:10;;;;;;;;;18.00;16.25;;;;;;;;5001554;28;11069;-72
2021/04/09 09:03:37;;;;;;;;;18.50;14.25;;;;;;;;5002470;28;10662;-72
2021/04/09 09:06:05;;;;;;;;;16.00;16.00;;;;;;;;5001616;28;10755;-72
2021/04/09 09:08:59;;;;;;;;;16.25;14.50;;;;;;;;5002584;28;10548;-72
2021/04/09 09:11:52;;;;;;;;;14.00;13.50;;;;;;;;5002846;28;10437;-72
2021/04/09 09:14:39;;;;;;;;;14.75;14.75;;;;;;;;5003731;28;10332;-72
2021/04/09 09:17:39;;;;;;;;;17.50;16.00;;;;;;;;4985934;28;10223;-73
2021/04/09 09:20:19;;;;;;;;;14.00;14.00;;;;;;;;4937534;28;10238;-73
2021/04/09 09:22:53;;;;;;;;;17.50;17.25;;;;;;;;4992450;28;10330;-73
2021/04/09 09:25:35;;;;;;;;;17.25;13.75;;;;;;;;5003474;28;10190;-72
2021/04/09 09:28:02;;;;;;;;;14.25;12.25;;;;;;;;5001044;28;9966;-72
2021/04/09 09:30:33;;;;;;;;;14.75;13.50;;;;;;;;5002004;28;9772;-73
2021/04/09 09:33:21;;;;;;;;;14.25;13.75;;;;;;;;5003032;28;9812;-73
2021/04/09 09:36:06;;;;;;;;;11.75;10.00;;;;;;;;4981813;28;9731;-72
2021/04/09 09:38:54;;;;;;;;;15.25;15.25;;;;;;;;5002208;28;9760;-72
2021/04/09 09:41:37;;;;;;;;;17.75;15.25;;;;;;;;4985109;28;9897;-72
2021/04/09 09:44:27;;;;;;;;;18.50;14.50;;;;;;;;5003337;28;9725;-74
2021/04/09 09:46:55;;;;;;;;;15.33;13.67;;;;;;;;5001264;28;9284;-73
2021/04/09 09:49:22;;;;;;;;;13.33;12.67;;;;;;;;5003970;28;9341;-73
2021/04/09 09:51:49;;;;;;;;;14.67;14.00;;;;;;;;5004236;28;9206;-73
2021/04/09 09:54:24;;;;;;;;;13.00;13.00;;;;;;;;5001952;28;8977;-73
2021/04/09 09:56:52;;;;;;;;;10.75;7.75;;;;;;;;5003939;28;9287;-74
2021/04/09 09:59:21;;;;;;;;;14.00;14.00;;;;;;;;4986830;28;8931;-74
2021/04/09 10:01:52;;;;;;;;;11.00;11.00;;;;;;;;5008771;28;9102;-73
2021/04/09 10:04:19;;;;;;;;;13.33;12.33;;;;;;;;5008876;28;9056;-72
2021/04/09 10:06:51;;;;;;;;;13.67;12.00;;;;;;;;5001972;28;8987;-72
2021/04/09 10:09:28;;;;;;;;;12.00;12.00;;;;;;;;5001596;28;8968;-72
2021/04/09 10:11:57;;;;;;;;;15.33;12.00;;;;;;;;5001123;28;8945;-72
2021/04/09 10:14:27;;;;;;;;;13.00;13.00;;;;;;;;4999086;28;9060;-74
2021/04/09 10:16:55;;;;;;;;;13.00;11.25;;;;;;;;5003878;28;8860;-72
2021/04/09 10:19:22;;;;;;;;;12.25;11.00;;;;;;;;5002437;28;8883;-72
2021/04/09 10:21:49;;;;;;;;;13.25;11.00;;;;;;;;5003878;28;8884;-74
2021/04/09 10:24:17;;;;;;;;;15.25;10.25;;;;;;;;5002112;28;8854;-73
2021/04/09 10:26:52;;;;;;;;;11.75;10.25;;;;;;;;5001926;28;8964;-72
2021/04/09 10:29:21;;;;;;;;;9.25;8.00;;;;;;;;4998680;28;8876;-72
2021/04/09 10:31:47;;;;;;;;;14.25;12.50;;;;;;;;5001076;28;9474;-72
2021/04/09 10:34:18;;;;;;;;;7.75;6.75;;;;;;;;5002739;28;8940;-74
2021/04/09 10:36:46;;;;;;;;;8.00;6.75;;;;;;;;5001470;28;8903;-74
2021/04/09 10:39:15;;;;;;;;;7.00;7.00;;;;;;;;5001706;28;9601;-74
2021/04/09 10:41:46;;;;;;;;;8.25;8.25;;;;;;;;5001771;28;9004;-73
2021/04/09 10:44:16;;;;;;;;;7.00;7.00;;;;;;;;5001168;28;9419;-72
2021/04/09 10:46:46;;;;;;;;;9.50;8.25;;;;;;;;5005884;28;8849;-74
2021/04/09 10:49:16;;;;;;;;;4.00;4.00;;;;;;;;5001433;28;8871;-73
2021/04/09 10:51:44;;;;;;;;;12.00;10.75;;;;;;;;5002228;28;9461;-73
2021/04/09 10:54:14;;;;;;;;;10.50;9.25;;;;;;;;5001464;28;8901;-74
2021/04/09 10:56:43;;;;;;;;;10.75;10.75;;;;;;;;5002808;28;8871;-74
2021/04/09 10:59:12;;;;;;;;;8.00;8.00;;;;;;;;5001654;28;9557;-75
2021/04/09 11:01:40;;;;;;;;;6.75;6.75;;;;;;;;5000259;28;8853;-74
2021/04/09 11:04:08;;;;;;;;;10.50;10.50;;;;;;;;5001540;28;8839;-73
2021/04/09 11:06:36;;;;;;;;;10.00;8.00;;;;;;;;5000648;28;8853;-74
2021/04/09 11:09:06;;;;;;;;;7.50;7.50;;;;;;;;5002702;28;8903;-76
2021/04/09 11:11:35;;;;;;;;;10.25;8.50;;;;;;;;4999140;28;8882;-75
2021/04/09 11:14:06;;;;;;;;;11.25;8.75;;;;;;;;4999984;28;8967;-74
2021/04/09 11:16:53;;;;;;;;;8.25;8.25;;;;;;;;4998581;28;8854;-73
2021/04/09 11:19:34;;;;;;;;;10.00;9.00;;;;;;;;5001600;28;8858;-72
2021/04/09 11:22:02;;;;;;;;;8.25;8.25;;;;;;;;5001442;28;8854;-73
2021/04/09 11:24:32;;;;;;;;;10.00;8.50;;;;;;;;4998095;28;8871;-72
2021/04/09 11:27:00;;;;;;;;;8.50;6.75;;;;;;;;4999810;28;8893;-71
2021/04/09 11:29:29;;;;;;;;;6.00;6.00;;;;;;;;5000832;28;8963;-72
2021/04/09 11:32:13;;;;;;;;;7.25;5.75;;;;;;;;5001027;28;8830;-72
2021/04/09 11:34:43;;;;;;;;;7.25;7.25;;;;;;;;4996179;28;8858;-73
2021/04/09 11:37:10;;;;;;;;;8.25;7.75;;;;;;;;4996864;28;9011;-75
2021/04/09 11:39:52;;;;;;;;;9.25;9.25;;;;;;;;4981627;28;8862;-73
2021/04/09 11:42:28;;;;;;;;;10.25;8.00;;;;;;;;4993608;28;8855;-73
2021/04/09 11:44:55;;;;;;;;;11.25;8.25;;;;;;;;5000555;28;8878;-73
2021/04/09 11:47:25;;;;;;;;;7.50;7.50;;;;;;;;4999184;28;8875;-72
2021/04/09 11:50:17;;;;;;;;;8.75;8.75;;;;;;;;5001403;28;8874;-73
2021/04/09 11:53:05;;;;;;;;;9.00;6.00;;;;;;;;4977794;28;8907;-73
2021/04/09 11:55:33;;;;;;;;;10.25;7.25;;;;;;;;4995440;28;8897;-72
2021/04/09 11:58:01;;;;;;;;;8.00;8.00;;;;;;;;5001246;28;8848;-73
2021/04/09 12:00:29;;;;;;;;;8.00;8.00;;;;;;;;4997610;28;10021;-73
2021/04/09 12:02:58;;;;;;;;;8.50;8.50;;;;;;;;4999840;28;8870;-73
2021/04/09 12:05:28;;;;;;;;;6.75;6.25;;;;;;;;4995890;28;8870;-73
2021/04/09 12:07:55;;;;;;;;;7.75;7.75;;;;;;;;4998606;28;9404;-72
2021/04/09 12:10:23;;;;;;;;;6.25;6.25;;;;;;;;5000629;28;8984;-73
2021/04/09 12:12:51;;;;;;;;;7.50;7.50;;;;;;;;4998505;28;8867;-73
2021/04/09 12:15:19;;;;;;;;;3.00;1.25;;;;;;;;4999208;28;8887;-73
2021/04/09 12:17:46;;;;;;;;;7.75;7.75;;;;;;;;4995571;28;8867;-73
2021/04/09 12:20:14;;;;;;;;;9.75;7.50;;;;;;;;4999774;28;8872;-73
2021/04/09 12:22:43;;;;;;;;;11.00;8.00;;;;;;;;4995188;28;8856;-73
2021/04/09 12:25:11;;;;;;;;;9.00;9.00;;;;;;;;4998743;28;8875;-73
2021/04/09 12:27:39;;;;;;;;;9.00;9.00;;;;;;;;5004031;28;9645;-72
2021/04/09 12:30:09;;;;;;;;;8.50;8.50;;;;;;;;5000597;28;8889;-73
2021/04/09 12:32:36;;;;;;;;;16.00;13.25;;;;;;;;5000113;28;8913;-72
2021/04/09 12:35:03;;;;;;;;;6.50;6.50;;;;;;;;4997865;28;8857;-72
2021/04/09 12:37:30;;;;;;;;;8.25;8.25;;;;;;;;4998527;28;8910;-73
2021/04/09 12:39:59;;;;;;;;;9.25;9.25;;;;;;;;4983202;28;8864;-73
2021/04/09 12:42:25;;;;;;;;;12.25;8.00;;;;;;;;5000353;28;8884;-73
2021/04/09 12:44:53;;;;;;;;;9.00;9.00;;;;;;;;4999606;28;8882;-73
2021/04/09 12:47:22;;;;;;;;;9.25;9.00;;;;;;;;4981772;28;8908;-73
2021/04/09 12:49:49;;;;;;;;;9.00;8.50;;;;;;;;4995470;28;8861;-73
2021/04/09 12:52:16;;;;;;;;;25.25;18.75;;;;;;;;4997806;28;8878;-74
2021/04/09 12:54:43;;;;;;;;;13.00;11.25;;;;;;;;4976306;28;8895;-72
2021/04/09 12:57:12;;;;;;;;;14.75;11.75;;;;;;;;5000414;28;8894;-72
2021/04/09 12:59:38;;;;;;;;;9.50;9.50;;;;;;;;4998521;28;8887;-73
2021/04/09 13:02:05;;;;;;;;;10.25;8.25;;;;;;;;4997042;28;8839;-72
2021/04/09 13:04:32;;;;;;;;;11.75;11.75;;;;;;;;4997932;28;8866;-72
2021/04/09 13:06:59;;;;;;;;;9.00;9.00;;;;;;;;4998349;28;8867;-71
2021/04/09 13:09:27;;;;;;;;;8.25;8.25;;;;;;;;4997179;28;9005;-71
2021/04/09 13:11:54;;;;;;;;;9.75;9.75;;;;;;;;4998131;28;9369;-72
2021/04/09 13:14:24;;;;;;;;;11.25;11.25;;;;;;;;4996779;28;8869;-73
2021/04/09 13:16:51;;;;;;;;;13.25;10.75;;;;;;;;4997539;28;8961;-72
2021/04/09 13:19:18;;;;;;;;;18.75;16.00;;;;;;;;4999019;28;8887;-72
2021/04/09 13:21:45;;;;;;;;;12.25;12.25;;;;;;;;4997191;28;8893;-74
2021/04/09 13:24:12;;;;;;;;;11.25;11.25;;;;;;;;4996539;28;8883;-73
2021/04/09 13:26:40;;;;;;;;;9.25;9.25;;;;;;;;4980659;28;8927;-72
2021/04/09 13:29:07;;;;;;;;;12.75;12.00;;;;;;;;4998725;28;8866;-73
2021/04/09 13:31:35;;;;;;;;;10.75;9.00;;;;;;;;4995145;28;8799;-73
2021/04/09 13:34:03;;;;;;;;;9.75;9.75;;;;;;;;4999008;28;8851;-73
2021/04/09 13:36:29;;;;;;;;;8.75;7.75;;;;;;;;4980764;28;8879;-74
2021/04/09 13:38:56;;;;;;;;;11.25;11.25;;;;;;;;5001035;28;8913;-73
2021/04/09 13:41:23;;;;;;;;;12.50;9.00;;;;;;;;5002776;28;8895;-73
2021/04/09 13:43:52;;;;;;;;;10.00;10.00;;;;;;;;5001242;28;8891;-73
2021/04/09 13:46:20;;;;;;;;;9.00;9.00;;;;;;;;5002267;28;8985;-72
2021/04/09 13:48:49;;;;;;;;;11.00;9.25;;;;;;;;5003696;28;8899;-74
2021/04/09 13:51:16;;;;;;;;;14.25;10.75;;;;;;;;5002285;28;8885;-73
2021/04/09 13:53:42;;;;;;;;;10.50;9.50;;;;;;;;5002722;28;8866;-72
2021/04/09 13:56:09;;;;;;;;;10.00;10.00;;;;;;;;5000563;28;8924;-74
2021/04/09 13:58:37;;;;;;;;;13.00;12.25;;;;;;;;5000403;28;8950;-74
2021/04/09 14:01:04;;;;;;;;;14.00;10.50;;;;;;;;4998575;28;8854;-72
2021/04/09 14:03:31;;;;;;;;;10.50;10.00;;;;;;;;5000475;28;8863;-73
2021/04/09 14:05:59;;;;;;;;;12.00;10.25;;;;;;;;5000545;28;8878;-72
2021/04/09 14:08:26;;;;;;;;;19.50;19.50;;;;;;;;5002560;28;8875;-74
2021/04/09 14:10:52;;;;;;;;;10.00;8.50;;;;;;;;5001141;28;9028;-74
2021/04/09 14:13:21;;;;;;;;;9.00;9.00;;;;;;;;4999197;28;8843;-72
2021/04/09 14:15:48;;;;;;;;;7.75;7.75;;;;;;;;5001517;28;8875;-73
2021/04/09 14:18:15;;;;;;;;;8.00;8.00;;;;;;;;5002139;28;8867;-73
2021/04/09 14:20:42;;;;;;;;;7.75;7.75;;;;;;;;5001725;28;9709;-73
2021/04/09 14:23:10;;;;;;;;;8.50;8.00;;;;;;;;5001751;28;8867;-71
2021/04/09 14:25:37;;;;;;;;;13.00;13.00;;;;;;;;5000335;28;8877;-74
2021/04/09 14:28:05;;;;;;;;;9.75;9.50;;;;;;;;4997294;28;8956;-74
2021/04/09 14:30:32;;;;;;;;;13.00;12.00;;;;;;;;5000239;28;8815;-73
2021/04/09 14:32:58;;;;;;;;;12.25;8.00;;;;;;;;5002667;28;8882;-75
2021/04/09 14:35:25;;;;;;;;;10.00;9.50;;;;;;;;4981056;28;8854;-77
2021/04/09 14:37:52;;;;;;;;;10.50;10.50;;;;;;;;4999359;28;8874;-74
2021/04/09 14:40:22;;;;;;;;;7.00;7.00;;;;;;;;4997712;28;8859;-71
2021/04/09 14:42:50;;;;;;;;;11.50;9.75;;;;;;;;5003059;28;8876;-74